CheckWX is a tool to help pilots better visualize weather data.  It is not intended as a substitute for an official pre-flight weather briefing.

00:06:20 UTC

LFOB METAR
Paris Beauvais Tillé Airport
Beauvais/Tillé, France
Current

36 mins ago

LFOB 052330Z AUTO 19009KT 3100 BR OVC002 01/01 Q1020 TEMPO 0500 FG VV///
Observed
Dec-5 @ 23:30 UTC
Wind
  • 190° at 9 KTS
Visibility
3,100 meters
Flight Rules
LIFR
Conditions
Mist
Cloud Levels
  • Overcast at 200' AGL
Temperature
C / 34°F
Dewpoint
C / 34°F
Humidity
100%
Altimeter
30.12" Hg
Pressure
1019.92 hPa
Previous

1 hour ago

LFOB 052300Z AUTO 20007KT 5000 BR OVC003 01/01 Q1021 TEMPO 0500 FG VV///
Observed
Dec-5 @ 23:00 UTC
Wind
  • 200° at 7 KTS
Visibility
5,000 meters
Flight Rules
LIFR
Conditions
Mist
Cloud Levels
  • Overcast at 300' AGL
Temperature
C / 34°F
Dewpoint
C / 34°F
Humidity
100%
Altimeter
30.15" Hg
Pressure
1020.92 hPa
Previous

2 hours ago

LFOB 052230Z AUTO 19006KT 160V220 5000 BR OVC004 01/01 Q1021 TEMPO 0500 FG VV///
Observed
Dec-5 @ 22:30 UTC
Wind
  • 190° at 6 KTS
Visibility
5,000 meters
Flight Rules
LIFR
Conditions
Mist
Cloud Levels
  • Overcast at 400' AGL
Temperature
C / 34°F
Dewpoint
C / 34°F
Humidity
100%
Altimeter
30.15" Hg
Pressure
1020.92 hPa